Time;durP1;ratioP1;P1;durP2;ratioP2;P2;SDS_P1;SDS_P2;PMS_P1;PMS_P2;Temp;Humidity;BMP_temperature;BMP_pressure;BME280_temperature;BME280_humidity;BME280_pressure;Samples;Min_cycle;Max_cycle;Signal;HPM_P1;HPM_P2
2022/06/25 00:01:17;;;;;;;3.00;1.95;;;20.10;99.90;;;;;;5061013;28;20024;-68
2022/06/25 00:03:44;;;;;;;3.22;2.95;;;20.10;99.90;;;;;;5054248;28;20424;-69
2022/06/25 00:06:10;;;;;;;4.13;2.60;;;20.20;99.90;;;;;;5048764;28;20500;-69
2022/06/25 00:08:37;;;;;;;2.65;2.28;;;20.20;99.90;;;;;;5056813;28;20574;-69
2022/06/25 00:11:05;;;;;;;2.90;2.30;;;20.20;99.90;;;;;;5053490;28;20037;-69
2022/06/25 00:13:31;;;;;;;8.65;2.65;;;20.10;99.90;;;;;;5056410;28;20528;-69
2022/06/25 00:15:57;;;;;;;2.55;2.25;;;20.10;99.90;;;;;;5054991;28;20367;-69
2022/06/25 00:18:23;;;;;;;4.97;2.85;;;20.10;99.90;;;;;;5052920;28;20017;-69
2022/06/25 00:20:49;;;;;;;5.55;2.30;;;20.00;99.90;;;;;;5049821;28;20492;-69
2022/06/25 00:23:15;;;;;;;5.60;2.45;;;20.00;99.90;;;;;;5051758;28;20024;-69
2022/06/25 00:25:41;;;;;;;3.03;2.50;;;20.00;99.90;;;;;;5049166;28;20102;-69
2022/06/25 00:28:07;;;;;;;5.05;2.60;;;20.00;99.90;;;;;;5054963;28;20404;-69
2022/06/25 00:30:33;;;;;;;4.32;3.10;;;19.90;99.90;;;;;;5053846;28;20401;-69
2022/06/25 00:32:59;;;;;;;3.80;2.80;;;19.90;99.90;;;;;;5060739;28;20016;-69
2022/06/25 00:35:26;;;;;;;3.72;2.80;;;19.90;99.90;;;;;;5054432;28;20389;-69
2022/06/25 00:37:51;;;;;;;5.50;3.08;;;19.90;99.90;;;;;;5061281;28;20024;-68
2022/06/25 00:40:18;;;;;;;5.95;3.40;;;20.00;99.90;;;;;;5055989;28;20041;-69
2022/06/25 00:42:50;;;;;;;4.15;2.58;;;19.90;99.90;;;;;;5055096;28;20052;-69
2022/06/25 00:45:16;;;;;;;6.93;2.63;;;20.00;99.90;;;;;;5051058;28;20059;-69
2022/06/25 00:47:42;;;;;;;3.65;2.92;;;20.00;99.90;;;;;;5054457;28;20061;-69
2022/06/25 00:50:08;;;;;;;3.97;3.30;;;20.00;99.90;;;;;;5057139;28;20025;-69
2022/06/25 00:52:36;;;;;;;5.05;2.92;;;19.90;99.90;;;;;;5055793;28;20476;-69
2022/06/25 00:55:07;;;;;;;6.60;2.88;;;19.90;99.90;;;;;;5061408;28;20032;-69
2022/06/25 00:57:34;;;;;;;4.60;3.15;;;19.80;99.90;;;;;;5058740;28;20112;-68
2022/06/25 01:00:07;;;;;;;3.05;2.85;;;19.90;99.90;;;;;;5067055;28;20047;-69
2022/06/25 01:02:34;;;;;;;6.47;3.20;;;19.90;99.90;;;;;;5049569;28;20024;-68
2022/06/25 01:04:59;;;;;;;3.20;2.88;;;20.00;99.90;;;;;;5048887;28;20037;-68
2022/06/25 01:07:25;;;;;;;4.57;2.97;;;19.90;99.90;;;;;;5051340;28;20401;-68
2022/06/25 01:09:52;;;;;;;3.28;2.85;;;19.80;99.90;;;;;;5054030;28;20062;-68
2022/06/25 01:12:18;;;;;;;5.57;3.70;;;19.80;99.90;;;;;;5051796;28;20025;-69
2022/06/25 01:14:43;;;;;;;4.65;3.15;;;19.80;99.90;;;;;;5051794;28;20384;-69
2022/06/25 01:17:10;;;;;;;3.80;3.40;;;19.80;99.90;;;;;;5048341;28;20038;-68
2022/06/25 01:19:36;;;;;;;6.55;3.13;;;19.80;99.90;;;;;;5048226;28;20143;-68
2022/06/25 01:22:04;;;;;;;4.45;3.30;;;19.70;99.90;;;;;;5054245;28;20487;-69
2022/06/25 01:24:30;;;;;;;3.25;2.88;;;19.70;99.90;;;;;;5046487;28;20040;-69
2022/06/25 01:26:55;;;;;;;4.95;3.13;;;19.70;99.90;;;;;;5048394;28;20017;-69
2022/06/25 01:29:21;;;;;;;3.95;3.25;;;19.60;99.90;;;;;;5048043;28;20028;-69
2022/06/25 01:31:47;;;;;;;5.25;3.33;;;19.70;99.90;;;;;;5054902;28;20454;-69
2022/06/25 01:34:12;;;;;;;4.07;3.05;;;19.70;99.90;;;;;;5048551;28;20538;-69
2022/06/25 01:36:38;;;;;;;5.18;3.55;;;19.70;99.90;;;;;;5055502;28;20508;-69
2022/06/25 01:39:04;;;;;;;5.80;3.30;;;19.60;99.90;;;;;;5048830;28;20078;-69
2022/06/25 01:41:29;;;;;;;5.55;3.05;;;19.60;99.90;;;;;;5056220;28;20481;-68
2022/06/25 01:43:55;;;;;;;3.80;3.50;;;19.60;99.90;;;;;;5056091;28;20083;-69
2022/06/25 01:46:21;;;;;;;3.83;3.08;;;19.60;99.90;;;;;;5054943;28;20493;-69
2022/06/25 01:48:48;;;;;;;3.70;3.40;;;19.60;99.90;;;;;;5049981;28;20029;-69
2022/06/25 01:51:13;;;;;;;3.85;3.05;;;19.60;99.90;;;;;;5052145;28;20033;-69
2022/06/25 01:53:40;;;;;;;5.88;3.78;;;19.60;99.90;;;;;;5051684;28;20075;-69
2022/06/25 01:56:07;;;;;;;10.13;3.70;;;19.60;99.90;;;;;;5047974;28;20122;-69
2022/06/25 01:58:33;;;;;;;6.75;3.28;;;19.60;99.90;;;;;;5049476;28;20014;-69
2022/06/25 02:00:59;;;;;;;11.40;4.07;;;19.50;99.90;;;;;;5056804;28;20017;-69
2022/06/25 02:03:25;;;;;;;5.28;3.22;;;19.50;99.90;;;;;;5052761;28;20088;-69
2022/06/25 02:05:57;;;;;;;9.15;3.75;;;19.40;99.90;;;;;;5051324;28;20033;-69
2022/06/25 02:08:24;;;;;;;10.98;3.78;;;19.50;99.90;;;;;;5049415;28;20048;-69
2022/06/25 02:10:50;;;;;;;6.47;4.00;;;19.50;99.90;;;;;;5047460;28;20466;-69
2022/06/25 02:13:16;;;;;;;6.18;4.53;;;19.50;99.90;;;;;;5054849;28;20029;-69
2022/06/25 02:15:43;;;;;;;7.90;3.92;;;19.40;99.90;;;;;;5058595;28;20043;-69
2022/06/25 02:18:10;;;;;;;8.43;3.97;;;19.40;99.90;;;;;;5053835;28;20414;-69
2022/06/25 02:20:36;;;;;;;10.27;4.03;;;19.40;99.90;;;;;;5062653;28;20381;-69
2022/06/25 02:23:03;;;;;;;7.00;4.30;;;19.40;99.90;;;;;;5058311;28;20397;-68
2022/06/25 02:25:30;;;;;;;5.55;4.32;;;19.30;99.90;;;;;;5046746;28;20037;-69
2022/06/25 02:27:56;;;;;;;7.32;4.53;;;19.40;99.90;;;;;;5057866;28;20393;-71
2022/06/25 02:30:22;;;;;;;5.88;3.88;;;19.30;99.90;;;;;;5049455;28;20469;-71
2022/06/25 02:32:48;;;;;;;8.45;4.25;;;19.30;99.90;;;;;;5056281;28;20021;-70
2022/06/25 02:35:13;;;;;;;6.45;4.55;;;19.30;99.90;;;;;;5055459;28;20032;-70
2022/06/25 02:37:39;;;;;;;7.57;4.47;;;19.30;99.90;;;;;;5052421;28;20052;-70
2022/06/25 02:40:06;;;;;;;4.30;3.90;;;19.20;99.90;;;;;;5062002;28;20032;-70
2022/06/25 02:42:35;;;;;;;5.60;4.10;;;19.30;99.90;;;;;;5051454;28;20032;-70
2022/06/25 02:45:02;;;;;;;6.55;3.88;;;19.20;99.90;;;;;;5054378;28;20147;-70
2022/06/25 02:47:28;;;;;;;9.73;4.13;;;19.20;99.90;;;;;;5058170;28;20040;-70
2022/06/25 02:49:53;;;;;;;8.60;4.20;;;19.20;99.90;;;;;;5057756;28;20099;-70
2022/06/25 02:52:19;;;;;;;6.78;3.58;;;19.20;99.90;;;;;;5061416;28;20063;-70
2022/06/25 02:54:44;;;;;;;5.20;4.32;;;19.20;99.90;;;;;;5050127;28;20108;-70
2022/06/25 02:59:54;;;;;;;7.78;4.47;;;19.10;99.90;;;;;;5055464;28;20039;-70
2022/06/25 03:02:20;;;;;;;6.03;4.50;;;19.00;99.90;;;;;;5052834;28;20112;-70
2022/06/25 03:04:45;;;;;;;8.95;4.30;;;19.00;99.90;;;;;;5059132;28;20432;-70
2022/06/25 03:07:11;;;;;;;8.07;4.43;;;19.00;99.90;;;;;;5049126;28;20481;-70
2022/06/25 03:09:37;;;;;;;6.20;3.80;;;19.10;99.90;;;;;;5050895;28;20064;-70
2022/06/25 03:12:03;;;;;;;5.25;3.95;;;19.00;99.90;;;;;;5044590;28;20129;-70
2022/06/25 03:14:29;;;;;;;5.57;4.18;;;19.00;99.90;;;;;;5048796;28;20475;-70
2022/06/25 03:16:54;;;;;;;5.43;3.92;;;19.00;99.90;;;;;;5047987;28;20053;-70
2022/06/25 03:19:20;;;;;;;5.43;4.05;;;18.90;99.90;;;;;;5051314;28;20543;-70
2022/06/25 03:21:46;;;;;;;4.78;4.28;;;18.90;99.90;;;;;;5046003;28;20033;-70
2022/06/25 03:24:12;;;;;;;5.97;4.15;;;18.90;99.90;;;;;;5052379;28;20052;-70
2022/06/25 03:26:38;;;;;;;8.35;5.00;;;18.80;99.90;;;;;;5049779;28;20021;-70
2022/06/25 03:29:04;;;;;;;6.47;5.05;;;18.70;99.90;;;;;;5046036;28;20060;-70
2022/06/25 03:31:30;;;;;;;5.85;4.07;;;18.70;99.90;;;;;;5052320;28;20052;-70
2022/06/25 03:33:56;;;;;;;5.32;4.70;;;18.60;99.90;;;;;;5048951;28;20029;-70
2022/06/25 03:36:22;;;;;;;7.03;4.90;;;18.70;99.90;;;;;;5050041;28;20037;-70
2022/06/25 03:38:48;;;;;;;6.60;4.15;;;18.70;99.90;;;;;;5059595;28;20023;-70
2022/06/25 03:43:59;;;;;;;4.57;3.80;;;18.80;99.90;;;;;;5050326;28;20040;-70
2022/06/25 03:46:24;;;;;;;6.28;4.22;;;18.70;99.90;;;;;;5058177;28;20059;-70
2022/06/25 03:48:50;;;;;;;5.93;4.47;;;18.70;99.90;;;;;;5063071;28;20022;-69
2022/06/25 03:51:16;;;;;;;5.40;4.70;;;18.80;99.90;;;;;;5055480;28;20479;-70
2022/06/25 03:53:42;;;;;;;5.07;4.40;;;18.80;99.90;;;;;;5051164;28;20025;-70
2022/06/25 03:56:07;;;;;;;8.00;4.05;;;18.80;99.90;;;;;;5054544;28;20051;-70
2022/06/25 03:58:33;;;;;;;10.70;5.05;;;18.70;99.90;;;;;;5062739;28;20028;-70
2022/06/25 04:00:59;;;;;;;6.85;4.80;;;18.70;99.90;;;;;;5046119;28;20025;-70
2022/06/25 04:03:25;;;;;;;6.57;4.32;;;18.70;99.90;;;;;;5056302;28;20477;-70
2022/06/25 04:05:50;;;;;;;5.38;4.50;;;18.80;99.90;;;;;;5050317;28;20075;-70
2022/06/25 04:08:16;;;;;;;4.53;4.13;;;18.80;99.90;;;;;;5046899;28;20469;-70
2022/06/25 04:10:42;;;;;;;6.88;4.20;;;18.80;99.90;;;;;;5055748;28;20060;-70
2022/06/25 04:13:08;;;;;;;5.95;4.25;;;18.90;99.90;;;;;;5054199;28;20051;-70
2022/06/25 04:15:33;;;;;;;6.00;4.20;;;18.80;99.90;;;;;;5052876;28;20025;-70
2022/06/25 04:17:59;;;;;;;5.05;4.15;;;18.80;99.90;;;;;;5059993;28;20078;-71
2022/06/25 04:20:25;;;;;;;5.18;4.30;;;18.70;99.90;;;;;;5053134;28;20029;-70
2022/06/25 04:22:51;;;;;;;12.98;4.85;;;18.80;99.90;;;;;;5059962;28;20029;-70
2022/06/25 04:25:17;;;;;;;8.00;4.22;;;18.80;99.90;;;;;;5051327;28;20036;-71
2022/06/25 04:30:27;;;;;;;5.15;4.40;;;18.90;99.90;;;;;;5062966;28;20074;-70
2022/06/25 04:32:52;;;;;;;4.40;4.00;;;19.00;99.90;;;;;;5047638;28;20115;-70
2022/06/25 04:35:18;;;;;;;6.25;3.65;;;19.00;99.90;;;;;;5062829;28;20025;-71
2022/06/25 04:37:44;;;;;;;5.53;3.33;;;19.10;99.90;;;;;;5061255;28;20024;-68
2022/06/25 04:40:10;;;;;;;8.45;3.13;;;19.10;99.90;;;;;;5059110;28;20439;-70
2022/06/25 04:42:36;;;;;;;5.47;4.00;;;19.10;99.90;;;;;;5055582;28;20109;-70
2022/06/25 04:45:01;;;;;;;4.50;4.10;;;19.10;99.90;;;;;;5054735;28;20127;-70
2022/06/25 04:47:27;;;;;;;7.57;5.20;;;19.20;99.90;;;;;;5055465;28;20400;-70
2022/06/25 04:49:52;;;;;;;6.93;3.97;;;19.20;99.90;;;;;;5055392;28;20087;-70
2022/06/25 04:52:18;;;;;;;5.28;3.75;;;19.20;99.90;;;;;;5036697;28;20033;-70
2022/06/25 04:54:44;;;;;;;4.00;3.30;;;19.30;99.90;;;;;;5035575;28;20462;-70
2022/06/25 04:57:10;;;;;;;6.72;3.70;;;19.30;99.90;;;;;;5044536;28;20017;-70
2022/06/25 04:59:35;;;;;;;6.25;3.53;;;19.30;99.90;;;;;;5055685;28;20037;-70
2022/06/25 05:02:01;;;;;;;4.22;3.55;;;19.30;99.90;;;;;;5055095;28;20461;-70
2022/06/25 05:04:27;;;;;;;5.30;3.45;;;19.30;99.90;;;;;;5054014;28;20090;-70
2022/06/25 05:06:52;;;;;;;4.10;3.50;;;19.30;99.90;;;;;;5054323;28;20033;-70
2022/06/25 05:09:18;;;;;;;3.95;3.50;;;19.30;99.90;;;;;;5054970;28;20115;-70
2022/06/25 05:11:44;;;;;;;7.43;3.60;;;19.30;99.90;;;;;;5055275;28;20021;-70
2022/06/25 05:14:10;;;;;;;9.20;3.45;;;19.20;99.90;;;;;;5055103;28;20059;-70
2022/06/25 05:16:36;;;;;;;3.60;3.28;;;19.20;99.90;;;;;;5057877;28;20032;-70
2022/06/25 05:19:01;;;;;;;4.20;3.80;;;19.30;99.90;;;;;;5053934;28;20048;-70
2022/06/25 05:21:27;;;;;;;10.82;4.20;;;19.40;99.90;;;;;;5053071;28;20032;-70
2022/06/25 05:23:53;;;;;;;9.40;3.92;;;19.40;99.90;;;;;;5054149;28;20032;-70
2022/06/25 05:26:19;;;;;;;7.50;3.97;;;19.40;99.90;;;;;;5054356;28;20659;-70
2022/06/25 05:28:44;;;;;;;4.00;3.67;;;19.40;99.90;;;;;;5054510;28;20032;-70
2022/06/25 05:31:10;;;;;;;5.50;3.35;;;19.50;99.90;;;;;;5055109;28;20051;-70
2022/06/25 05:33:36;;;;;;;6.30;3.78;;;19.50;99.90;;;;;;5054978;28;20044;-70
2022/06/25 05:36:02;;;;;;;4.28;3.67;;;19.60;99.90;;;;;;5053649;28;20074;-70
2022/06/25 05:38:28;;;;;;;4.40;3.72;;;19.40;99.90;;;;;;5054590;28;20525;-70
2022/06/25 05:40:54;;;;;;;5.30;4.03;;;19.50;99.90;;;;;;5054662;28;20071;-70
2022/06/25 05:43:19;;;;;;;5.25;3.75;;;19.50;99.90;;;;;;5047166;28;20036;-70
2022/06/25 05:45:45;;;;;;;5.38;3.72;;;19.50;99.90;;;;;;5047472;28;20036;-70
2022/06/25 05:48:11;;;;;;;6.32;4.00;;;19.50;99.90;;;;;;5054595;28;20487;-70
2022/06/25 05:50:36;;;;;;;7.90;3.88;;;19.50;99.90;;;;;;5045774;28;20537;-70
2022/06/25 05:53:02;;;;;;;10.30;3.33;;;19.60;99.90;;;;;;5038211;28;20120;-69
2022/06/25 05:55:28;;;;;;;3.70;3.30;;;19.60;99.90;;;;;;5054403;28;20021;-70
2022/06/25 05:57:54;;;;;;;6.70;2.72;;;19.70;99.90;;;;;;5054066;28;20037;-70
2022/06/25 06:00:20;;;;;;;4.43;3.13;;;19.70;99.90;;;;;;5054653;28;20017;-69
2022/06/25 06:02:45;;;;;;;8.48;2.83;;;19.80;99.90;;;;;;5053650;28;20384;-70
2022/06/25 06:05:11;;;;;;;7.13;3.05;;;19.70;99.90;;;;;;5053553;28;20041;-70
2022/06/25 06:07:37;;;;;;;4.93;3.08;;;19.70;99.90;;;;;;5042873;28;20053;-69
2022/06/25 06:10:04;;;;;;;6.60;2.70;;;19.70;99.90;;;;;;5048693;28;20025;-69
2022/06/25 06:12:29;;;;;;;4.75;3.08;;;19.70;99.90;;;;;;5052605;28;20025;-69
2022/06/25 06:14:55;;;;;;;5.78;2.95;;;19.70;99.90;;;;;;5053754;28;20040;-69
2022/06/25 06:17:21;;;;;;;4.43;2.60;;;19.70;99.90;;;;;;5054023;28;20032;-70
2022/06/25 06:19:47;;;;;;;3.97;2.88;;;19.80;99.90;;;;;;5053696;28;20351;-70
2022/06/25 06:22:12;;;;;;;7.32;3.33;;;19.80;99.90;;;;;;5053821;28;20393;-69
2022/06/25 06:24:38;;;;;;;5.72;2.90;;;19.80;99.90;;;;;;5053234;28;20033;-70
2022/06/25 06:27:05;;;;;;;7.90;3.28;;;19.90;99.90;;;;;;5052462;28;20025;-70
2022/06/25 06:29:31;;;;;;;5.13;3.10;;;20.00;99.90;;;;;;5053947;28;20477;-70
2022/06/25 06:31:57;;;;;;;6.15;2.85;;;20.00;99.90;;;;;;5052676;28;20025;-69
2022/06/25 06:34:22;;;;;;;5.97;2.70;;;20.10;99.90;;;;;;5053015;28;20035;-70
2022/06/25 06:36:48;;;;;;;6.10;2.60;;;20.10;99.90;;;;;;5053388;28;20052;-69
2022/06/25 06:39:14;;;;;;;6.38;3.22;;;20.10;99.90;;;;;;5053394;28;20462;-70
2022/06/25 06:41:40;;;;;;;6.32;3.00;;;20.20;99.90;;;;;;5053776;28;20024;-69
2022/06/25 06:44:06;;;;;;;4.03;2.70;;;20.20;99.90;;;;;;5052129;28;20607;-70
2022/06/25 06:46:32;;;;;;;5.47;2.78;;;20.20;99.90;;;;;;5050377;28;20124;-70
2022/06/25 06:48:57;;;;;;;7.60;3.50;;;20.20;99.90;;;;;;5052155;28;20013;-70
2022/06/25 06:51:23;;;;;;;4.65;2.70;;;20.30;99.90;;;;;;5046019;28;20037;-69
2022/06/25 06:53:49;;;;;;;4.63;3.10;;;20.20;99.90;;;;;;5033502;28;20101;-70
2022/06/25 06:56:15;;;;;;;4.15;2.65;;;20.30;99.90;;;;;;5049103;28;20040;-69
2022/06/25 06:58:40;;;;;;;4.25;2.92;;;20.20;99.90;;;;;;5049206;28;20017;-69
2022/06/25 07:01:06;;;;;;;6.28;3.10;;;20.30;99.90;;;;;;5045781;28;20045;-70
2022/06/25 07:03:31;;;;;;;6.18;2.63;;;20.30;99.90;;;;;;5035096;28;20053;-70
2022/06/25 07:05:57;;;;;;;2.90;2.20;;;20.40;99.90;;;;;;5051820;28;20063;-70
2022/06/25 07:08:23;;;;;;;6.05;2.38;;;20.30;99.90;;;;;;5053008;28;20373;-70
2022/06/25 07:10:48;;;;;;;5.50;2.78;;;20.50;99.90;;;;;;5036494;28;20151;-70
2022/06/25 07:13:14;;;;;;;5.63;2.90;;;20.70;99.90;;;;;;5044188;28;20083;-70
2022/06/25 07:15:40;;;;;;;8.45;2.47;;;20.90;99.90;;;;;;5043166;28;20525;-70
2022/06/25 07:18:06;;;;;;;4.75;2.15;;;21.00;99.90;;;;;;5042688;28;20093;-70
2022/06/25 07:20:32;;;;;;;4.85;2.30;;;21.10;99.90;;;;;;5047081;28;20388;-70
2022/06/25 07:22:58;;;;;;;4.32;2.10;;;21.30;99.90;;;;;;5035847;28;20026;-70
2022/06/25 07:25:23;;;;;;;4.45;2.00;;;21.50;99.90;;;;;;5037717;28;20083;-70
2022/06/25 07:27:49;;;;;;;8.35;2.05;;;21.50;99.90;;;;;;5042975;28;20013;-70
2022/06/25 07:30:15;;;;;;;4.45;1.80;;;21.50;99.90;;;;;;5032457;28;20036;-70
2022/06/25 07:32:41;;;;;;;5.25;1.88;;;21.50;99.90;;;;;;5034900;28;20034;-70
2022/06/25 07:35:07;;;;;;;1.95;1.40;;;21.60;99.90;;;;;;5032847;28;20100;-70
2022/06/25 07:37:33;;;;;;;2.20;1.10;;;21.60;99.90;;;;;;5032208;28;20533;-70
2022/06/25 07:40:00;;;;;;;4.57;1.40;;;21.60;99.90;;;;;;5034224;28;20091;-70
2022/06/25 07:42:26;;;;;;;4.07;1.50;;;21.60;99.90;;;;;;5033366;28;20535;-70
2022/06/25 07:44:52;;;;;;;4.00;1.73;;;21.60;99.90;;;;;;5051496;28;20127;-70
2022/06/25 07:47:18;;;;;;;3.92;1.50;;;21.70;99.90;;;;;;5047091;28;20104;-70
2022/06/25 07:52:29;;;;;;;4.28;1.40;;;21.70;99.90;;;;;;5044395;28;20116;-71
2022/06/25 07:54:54;;;;;;;4.38;1.63;;;21.70;99.90;;;;;;5050344;28;20483;-71
2022/06/25 07:57:20;;;;;;;2.80;1.40;;;21.70;99.90;;;;;;5049495;28;20039;-72
2022/06/25 07:59:46;;;;;;;2.60;1.45;;;21.70;99.90;;;;;;5049820;28;20646;-71
2022/06/25 08:02:11;;;;;;;5.00;1.80;;;21.80;99.90;;;;;;5050550;28;20444;-71
2022/06/25 08:04:37;;;;;;;1.60;1.35;;;21.80;99.90;;;;;;5051719;28;20062;-71
2022/06/25 08:07:03;;;;;;;2.25;1.65;;;21.90;99.90;;;;;;5040210;28;20112;-71
2022/06/25 08:09:29;;;;;;;2.83;1.60;;;21.80;99.90;;;;;;5041868;28;20067;-72
2022/06/25 08:11:55;;;;;;;5.30;1.88;;;21.90;99.90;;;;;;5051682;28;20096;-71
2022/06/25 08:14:21;;;;;;;7.65;1.83;;;21.90;99.90;;;;;;5052006;28;20113;-71
2022/06/25 08:16:47;;;;;;;4.45;1.90;;;22.10;99.90;;;;;;5050239;28;20531;-72
2022/06/25 08:19:12;;;;;;;5.30;1.52;;;22.20;99.90;;;;;;5046333;28;20386;-72
2022/06/25 08:21:38;;;;;;;6.35;1.83;;;22.50;99.90;;;;;;5044972;28;20431;-73
2022/06/25 08:24:04;;;;;;;4.95;1.73;;;22.80;99.90;;;;;;5032708;28;20083;-72
2022/06/25 08:26:30;;;;;;;2.80;1.60;;;22.80;99.90;;;;;;5048349;28;20021;-73
2022/06/25 08:28:55;;;;;;;2.72;1.60;;;22.90;99.90;;;;;;5039461;28;20509;-71
2022/06/25 08:31:23;;;;;;;3.08;1.30;;;22.70;99.90;;;;;;5035100;28;20026;-71
2022/06/25 08:33:48;;;;;;;5.18;1.75;;;22.80;99.90;;;;;;5042727;28;20017;-71
2022/06/25 08:36:14;;;;;;;4.78;1.75;;;22.80;99.90;;;;;;5040302;28;20489;-72
2022/06/25 08:38:40;;;;;;;7.00;1.73;;;22.80;99.90;;;;;;5040202;28;20025;-71
2022/06/25 08:41:05;;;;;;;6.35;1.63;;;22.90;99.90;;;;;;5041774;28;20149;-71
2022/06/25 08:43:31;;;;;;;2.97;1.42;;;23.00;99.90;;;;;;5043295;28;20020;-71
2022/06/25 08:45:57;;;;;;;2.72;1.33;;;22.90;99.90;;;;;;5039839;28;20038;-71
2022/06/25 08:48:29;;;;;;;3.80;1.08;;;22.80;99.90;;;;;;5041161;28;20090;-72
2022/06/25 08:50:56;;;;;;;1.70;0.93;;;23.00;99.90;;;;;;5042214;28;20024;-73
2022/06/25 08:53:21;;;;;;;1.10;1.00;;;22.80;99.90;;;;;;5041800;28;20022;-72
2022/06/25 08:55:47;;;;;;;4.35;1.45;;;22.80;99.90;;;;;;5040902;28;20381;-72
2022/06/25 08:58:14;;;;;;;2.25;1.35;;;23.00;99.90;;;;;;5045296;28;20102;-72
2022/06/25 09:00:42;;;;;;;3.20;1.35;;;22.80;99.90;;;;;;5052851;28;20036;-72
2022/06/25 09:03:09;;;;;;;2.85;1.42;;;23.00;99.90;;;;;;5055262;28;20434;-72
2022/06/25 09:05:37;;;;;;;2.53;1.35;;;22.90;99.90;;;;;;5052690;28;20037;-72
2022/06/25 09:08:06;;;;;;;2.97;1.20;;;23.10;99.90;;;;;;5049227;28;20513;-73
2022/06/25 09:10:33;;;;;;;4.05;1.40;;;23.20;99.90;;;;;;5051665;28;20021;-72
2022/06/25 09:13:00;;;;;;;2.53;1.60;;;23.30;99.90;;;;;;5054778;28;20021;-72
2022/06/25 09:15:33;;;;;;;4.68;2.25;;;23.20;99.90;;;;;;5054042;28;20433;-73
2022/06/25 09:18:11;;;;;;;18.40;9.23;;;22.90;99.90;;;;;;5050448;28;20029;-72
2022/06/25 09:20:58;;;;;;;7.57;4.05;;;22.80;99.90;;;;;;5052361;28;20025;-72
2022/06/25 09:23:26;;;;;;;21.17;8.25;;;22.70;99.90;;;;;;5049204;28;20473;-72
2022/06/25 09:26:11;;;;;;;7.03;3.80;;;22.70;99.90;;;;;;5050201;28;20115;-72
2022/06/25 09:28:41;;;;;;;2.60;1.30;;;22.70;99.90;;;;;;5053108;28;20025;-72
2022/06/25 09:31:08;;;;;;;4.15;1.15;;;22.70;99.90;;;;;;5033752;28;20074;-70
2022/06/25 09:33:36;;;;;;;1.30;0.90;;;22.90;99.90;;;;;;5034770;28;20081;-68
2022/06/25 09:36:03;;;;;;;1.05;1.02;;;22.90;99.90;;;;;;5045665;28;20017;-72
2022/06/25 09:38:28;;;;;;;3.83;1.00;;;23.00;99.90;;;;;;5053158;28;20029;-70
2022/06/25 09:40:59;;;;;;;1.98;1.15;;;23.20;99.90;;;;;;5052046;28;20074;-71
2022/06/25 09:43:25;;;;;;;2.78;1.10;;;23.30;99.90;;;;;;5066697;28;20025;-71
2022/06/25 09:45:54;;;;;;;3.60;1.23;;;23.50;99.90;;;;;;5053890;28;20473;-71
2022/06/25 09:48:24;;;;;;;2.20;1.02;;;23.50;99.90;;;;;;5053907;28;20465;-71
2022/06/25 09:51:28;;;;;;;1.35;1.20;;;23.60;99.90;;;;;;5053568;28;20400;-71
2022/06/25 09:53:56;;;;;;;1.88;1.20;;;23.60;99.90;;;;;;5042908;28;20037;-71
2022/06/25 09:56:23;;;;;;;2.70;1.00;;;23.60;99.90;;;;;;5034340;28;20150;-71
2022/06/25 09:58:49;;;;;;;2.10;1.10;;;23.70;99.90;;;;;;5034434;28;20524;-71
2022/06/25 10:01:20;;;;;;;3.88;1.17;;;23.70;99.90;;;;;;5034708;28;20026;-71
2022/06/25 10:03:47;;;;;;;2.28;1.05;;;23.60;99.90;;;;;;5034701;28;20076;-71
2022/06/25 10:06:18;;;;;;;2.10;0.95;;;23.60;99.90;;;;;;5048477;28;20033;-70
2022/06/25 10:09:10;;;;;;;2.92;1.17;;;23.60;99.90;;;;;;5053931;28;20013;-70
2022/06/25 10:11:37;;;;;;;5.57;1.23;;;23.70;99.90;;;;;;5052237;28;20681;-70
2022/06/25 10:14:03;;;;;;;1.20;1.10;;;23.80;99.90;;;;;;5053110;28;20032;-70
2022/06/25 10:16:29;;;;;;;1.65;1.30;;;23.90;99.90;;;;;;5053758;28;20382;-70
2022/06/25 10:18:55;;;;;;;2.35;1.27;;;23.80;99.90;;;;;;5054160;28;20416;-71
2022/06/25 10:21:23;;;;;;;1.80;0.93;;;24.10;99.90;;;;;;5053643;28;20064;-70
2022/06/25 10:23:55;;;;;;;1.90;1.13;;;24.00;99.90;;;;;;5054198;28;20029;-70
2022/06/25 10:26:21;;;;;;;2.78;1.00;;;24.30;99.90;;;;;;5040176;28;20029;-71
2022/06/25 10:28:47;;;;;;;1.95;1.27;;;24.70;99.90;;;;;;5033597;28;20032;-71
2022/06/25 10:31:16;;;;;;;1.20;1.10;;;25.10;99.90;;;;;;5034199;28;20036;-71
2022/06/25 10:34:00;;;;;;;1.25;1.15;;;25.40;99.90;;;;;;5048821;28;20029;-70
2022/06/25 10:36:51;;;;;;;1.40;1.10;;;25.50;99.90;;;;;;5049949;28;20025;-70
2022/06/25 10:39:22;;;;;;;4.30;1.45;;;25.40;99.90;;;;;;5073738;28;20020;-70
2022/06/25 10:45:15;;;;;;;1.58;0.60;;;25.20;99.90;;;;;;5037825;28;20567;-71
2022/06/25 10:47:54;;;;;;;1.42;0.90;;;24.80;99.90;;;;;;5053574;28;20021;-71
2022/06/25 10:50:22;;;;;;;2.55;0.82;;;24.40;99.90;;;;;;5053607;28;20048;-70
2022/06/25 10:53:03;;;;;;;1.20;1.00;;;24.30;99.90;;;;;;5053276;28;20025;-71
2022/06/25 10:55:44;;;;;;;2.13;1.25;;;24.50;99.90;;;;;;5051905;28;20058;-70
2022/06/25 10:58:21;;;;;;;1.63;1.33;;;24.70;99.90;;;;;;5053374;28;20029;-71
2022/06/25 11:00:54;;;;;;;1.52;1.10;;;24.80;99.90;;;;;;5042666;28;20065;-70
2022/06/25 11:03:30;;;;;;;2.13;1.08;;;25.10;99.90;;;;;;5032256;28;20079;-71
2022/06/25 11:05:57;;;;;;;2.65;1.13;;;25.10;99.90;;;;;;5047486;28;20387;-71
2022/06/25 11:08:32;;;;;;;2.45;1.00;;;25.00;99.90;;;;;;5053149;28;20029;-70
2022/06/25 11:10:58;;;;;;;1.98;1.42;;;24.90;99.90;;;;;;5053009;28;20025;-70
2022/06/25 11:13:24;;;;;;;1.83;1.30;;;24.90;99.90;;;;;;5052817;28;20488;-70
2022/06/25 11:15:50;;;;;;;2.58;1.30;;;24.90;99.90;;;;;;5046718;28;20037;-71
2022/06/25 11:18:15;;;;;;;3.15;1.02;;;25.10;99.90;;;;;;5052608;28;20021;-70
2022/06/25 11:20:42;;;;;;;2.85;1.25;;;25.00;99.90;;;;;;5068515;28;20025;-71
2022/06/25 11:23:15;;;;;;;1.70;1.27;;;24.90;99.90;;;;;;5053931;28;20070;-70
2022/06/25 11:28:47;;;;;;;2.15;1.10;;;24.60;99.90;;;;;;5052757;28;20115;-71
2022/06/25 11:31:18;;;;;;;2.55;1.23;;;25.20;99.90;;;;;;5053043;28;20048;-71
2022/06/25 11:33:44;;;;;;;5.15;1.30;;;25.30;99.90;;;;;;5052017;28;20029;-70
2022/06/25 11:36:14;;;;;;;1.50;1.00;;;25.10;99.90;;;;;;5048835;28;20401;-71
2022/06/25 11:38:40;;;;;;;1.63;1.10;;;24.80;99.90;;;;;;5052229;28;20024;-71
2022/06/25 11:41:06;;;;;;;4.90;1.48;;;24.80;99.90;;;;;;5052561;28;20036;-70
2022/06/25 11:43:34;;;;;;;3.28;1.00;;;24.90;99.90;;;;;;5043184;28;20021;-70
2022/06/25 11:46:01;;;;;;;2.15;1.85;;;25.20;99.90;;;;;;5043323;28;20559;-70
2022/06/25 11:48:28;;;;;;;1.77;1.00;;;25.00;99.90;;;;;;5052637;28;20385;-70
2022/06/25 11:51:03;;;;;;;3.35;0.90;;;25.00;99.90;;;;;;5047638;28;20076;-71
2022/06/25 11:53:29;;;;;;;2.67;1.00;;;24.90;99.90;;;;;;5052729;28;20021;-70
2022/06/25 11:56:00;;;;;;;3.28;0.98;;;25.10;99.90;;;;;;5052170;28;20070;-71
2022/06/25 11:58:34;;;;;;;1.83;0.90;;;25.40;99.90;;;;;;5052806;28;20029;-71
2022/06/25 12:01:02;;;;;;;3.05;1.00;;;25.30;99.90;;;;;;5052818;28;20021;-71
2022/06/25 12:03:29;;;;;;;2.83;0.93;;;25.50;99.90;;;;;;5052706;28;20052;-72
2022/06/25 12:05:56;;;;;;;1.25;0.85;;;26.00;99.90;;;;;;5052100;28;20102;-71
2022/06/25 12:08:23;;;;;;;1.65;0.90;;;26.30;99.90;;;;;;5051273;28;20373;-71
2022/06/25 12:10:51;;;;;;;2.35;1.00;;;26.40;99.90;;;;;;5052343;28;20025;-71
2022/06/25 12:13:17;;;;;;;1.27;0.60;;;26.30;99.90;;;;;;5047760;28;20018;-72
2022/06/25 12:15:43;;;;;;;2.33;0.95;;;26.10;99.90;;;;;;5032966;28;20047;-72
2022/06/25 12:18:08;;;;;;;6.60;1.10;;;26.30;99.90;;;;;;5039950;28;20092;-71
2022/06/25 12:20:35;;;;;;;2.00;0.85;;;26.50;99.90;;;;;;5049667;28;20025;-72
2022/06/25 12:23:01;;;;;;;3.40;0.98;;;26.80;99.90;;;;;;5044394;28;20072;-72
2022/06/25 12:25:32;;;;;;;2.75;0.80;;;26.90;99.90;;;;;;5051596;28;20033;-71
2022/06/25 12:27:58;;;;;;;2.10;1.10;;;26.80;99.90;;;;;;5052309;28;20024;-71
2022/06/25 12:30:27;;;;;;;3.30;1.05;;;26.90;99.90;;;;;;5052204;28;20021;-71
2022/06/25 12:32:56;;;;;;;5.05;1.00;;;26.60;99.90;;;;;;5055619;28;20068;-71
2022/06/25 12:35:26;;;;;;;1.05;0.93;;;26.90;99.90;;;;;;5055644;28;20025;-71
2022/06/25 12:38:01;;;;;;;0.90;0.75;;;27.20;99.90;;;;;;5055072;28;20025;-71
2022/06/25 12:40:28;;;;;;;2.30;0.85;;;27.50;99.90;;;;;;5055247;28;20029;-71
2022/06/25 12:42:55;;;;;;;1.98;0.77;;;27.40;99.90;;;;;;5049488;28;20022;-71
2022/06/25 12:45:22;;;;;;;3.60;0.95;;;27.10;99.90;;;;;;5042434;28;20067;-71
2022/06/25 12:47:48;;;;;;;3.47;0.90;;;26.90;99.90;;;;;;5054214;28;20025;-71
2022/06/25 12:50:28;;;;;;;2.05;0.73;;;26.80;99.90;;;;;;5055128;28;20146;-72
2022/06/25 12:52:55;;;;;;;1.23;0.70;;;26.60;99.90;;;;;;5055181;28;20054;-71
2022/06/25 12:55:25;;;;;;;1.30;0.73;;;26.90;99.90;;;;;;5055844;28;20466;-71
2022/06/25 12:57:50;;;;;;;1.10;0.68;;;26.70;99.90;;;;;;5055163;28;20474;-71
2022/06/25 13:00:24;;;;;;;1.48;0.80;;;27.40;99.90;;;;;;5055723;28;20103;-71
2022/06/25 13:02:50;;;;;;;2.17;0.70;;;27.20;99.90;;;;;;5055343;28;20028;-71